PWSweather.com
Personal Weather Stations
Station Observations
GIRWX1
Presovsky Kraj, GiraltovceSK

Presovsky KrajGiraltovceSK

Lat: 49.118, Lon: 21.52

Elevation: 630

Station Type: wh1080

http://www.meteogiraltovce.wz.cz/

High Low Average
Temperature 52.1°F11.2°C 45.0°F7.2°C 49.2°F9.6°C
Dew Point 40.5°F4.7°C 35.7°F2.1°C 37.9°F3.3°C
Winds 13.5 mph 21.7 kmh Calm Calm 5.0 mph S8.0 kmh S
Wind Gusts 22.1 mph35.6 kmh -- 8.0 mph12.9 kmh
Humidity 81% 60% 65%
Pressure 30.12 in1020.0 mb 30.06 in1017.9 mb -
Precipitation 0.00 in0.0 mm - -
Hour Temp Dew Point Humidity Winds Wind Gusts Pressure Precip Precip Rate Daily Precip Total
12:00 AM 52.1°F11.2°C 40.3°F4.6°C 64% 11.3 mph SE18.2 kmh SE 21.3 mph34.3 kmh 30.06 in1017.9 mb 0.00 in0.0 mm 0.00 in0.0 mm 0.00 in0.0 mm
12:05 AM 52.0°F11.1°C 40.2°F4.6°C 64% 11.4 mph S18.3 kmh S 13.6 mph21.9 kmh 30.06 in1017.9 mb 0.00 in0.0 mm 0.00 in0.0 mm 0.00 in0.0 mm
12:10 AM 52.0°F11.1°C 40.3°F4.6°C 64% 11.7 mph S18.8 kmh S 15.9 mph25.6 kmh 30.06 in1017.9 mb 0.00 in0.0 mm 0.00 in0.0 mm 0.00 in0.0 mm
12:15 AM 51.8°F11.0°C 40.4°F4.7°C 65% 7.4 mph SSW11.9 kmh SSW 11.4 mph18.3 kmh 30.06 in1017.9 mb 0.00 in0.0 mm 0.00 in0.0 mm 0.00 in0.0 mm
12:20 AM 51.7°F10.9°C 40.4°F4.7°C 65% 12.9 mph S20.8 kmh S 17.4 mph28.0 kmh 30.06 in1017.9 mb 0.00 in0.0 mm 0.00 in0.0 mm 0.00 in0.0 mm
12:25 AM 51.6°F10.9°C 40.3°F4.6°C 65% 7.9 mph S12.7 kmh S 14.5 mph23.3 kmh 30.06 in1017.9 mb 0.00 in0.0 mm 0.00 in0.0 mm 0.00 in0.0 mm
12:30 AM 51.5°F10.8°C 40.2°F4.6°C 65% 8.8 mph S14.2 kmh S 13.6 mph21.9 kmh 30.07 in1018.3 mb 0.00 in0.0 mm 0.00 in0.0 mm 0.00 in0.0 mm
12:35 AM 51.4°F10.8°C 40.5°F4.7°C 66% 6.9 mph S11.1 kmh S 10.7 mph17.2 kmh 30.07 in1018.3 mb 0.00 in0.0 mm 0.00 in0.0 mm 0.00 in0.0 mm
12:40 AM 51.3°F10.7°C 40.4°F4.7°C 66% 7.8 mph S12.6 kmh S 12.1 mph19.5 kmh 30.07 in1018.3 mb 0.00 in0.0 mm 0.00 in0.0 mm 0.00 in0.0 mm
12:45 AM 51.2°F10.7°C 40.2°F4.6°C 66% 4.4 mph S7.1 kmh S 7.6 mph12.2 kmh 30.07 in1018.3 mb 0.00 in0.0 mm 0.00 in0.0 mm 0.00 in0.0 mm
12:50 AM 51.0°F10.6°C 40.3°F4.6°C 67% 7.4 mph S11.9 kmh S 18.3 mph29.5 kmh 30.07 in1018.3 mb 0.00 in0.0 mm 0.00 in0.0 mm 0.00 in0.0 mm
12:55 AM 50.9°F10.5°C 40.3°F4.6°C 67% 9.4 mph S15.1 kmh S 18.3 mph29.5 kmh 30.06 in1017.9 mb 0.00 in0.0 mm 0.00 in0.0 mm 0.00 in0.0 mm
01:00 AM 50.7°F10.4°C 40.2°F4.6°C 67% 9.1 mph SSE14.6 kmh SSE 14.5 mph23.3 kmh 30.06 in1017.9 mb 0.00 in0.0 mm 0.00 in0.0 mm 0.00 in0.0 mm
01:05 AM 50.7°F10.4°C 40.2°F4.6°C 67% 11.4 mph S18.3 kmh S 15.9 mph25.6 kmh 30.07 in1018.3 mb 0.00 in0.0 mm 0.00 in0.0 mm 0.00 in0.0 mm
01:10 AM 50.9°F10.5°C 40.0°F4.4°C 66% 10.7 mph SSE17.2 kmh SSE 15.2 mph24.5 kmh 30.07 in1018.3 mb 0.00 in0.0 mm 0.00 in0.0 mm 0.00 in0.0 mm
01:15 AM 50.9°F10.5°C 40.0°F4.4°C 66% 9.1 mph S14.6 kmh S 15.2 mph24.5 kmh 30.07 in1018.3 mb 0.00 in0.0 mm 0.00 in0.0 mm 0.00 in0.0 mm
01:20 AM 51.1°F10.6°C 39.9°F4.4°C 65% 10.4 mph S16.7 kmh S 15.9 mph25.6 kmh 30.07 in1018.3 mb 0.00 in0.0 mm 0.00 in0.0 mm 0.00 in0.0 mm
01:25 AM 51.1°F10.6°C 39.8°F4.3°C 65% 11.4 mph S18.3 kmh S 21.3 mph34.3 kmh 30.07 in1018.3 mb 0.00 in0.0 mm 0.00 in0.0 mm 0.00 in0.0 mm
01:30 AM 51.3°F10.7°C 39.6°F4.2°C 64% 12.8 mph S20.6 kmh S 21.3 mph34.3 kmh 30.07 in1018.3 mb 0.00 in0.0 mm 0.00 in0.0 mm 0.00 in0.0 mm
01:35 AM 51.3°F10.7°C 39.6°F4.2°C 64% 13.5 mph S21.7 kmh S 20.6 mph33.2 kmh 30.07 in1018.3 mb 0.00 in0.0 mm 0.00 in0.0 mm 0.00 in0.0 mm
01:40 AM 51.4°F10.8°C 39.6°F4.2°C 64% 12.2 mph S19.6 kmh S 17.4 mph28.0 kmh 30.07 in1018.3 mb 0.00 in0.0 mm 0.00 in0.0 mm 0.00 in0.0 mm
01:45 AM 51.4°F10.8°C 39.4°F4.1°C 63% 10.2 mph S16.4 kmh S 15.2 mph24.5 kmh 30.07 in1018.3 mb 0.00 in0.0 mm 0.00 in0.0 mm 0.00 in0.0 mm
01:50 AM 51.4°F10.8°C 39.3°F4.1°C 63% 11.2 mph S18.0 kmh S 19.7 mph31.7 kmh 30.07 in1018.3 mb 0.00 in0.0 mm 0.00 in0.0 mm 0.00 in0.0 mm
01:55 AM 51.4°F10.8°C 39.3°F4.1°C 63% 8.4 mph S13.5 kmh S 12.1 mph19.5 kmh 30.07 in1018.3 mb 0.00 in0.0 mm 0.00 in0.0 mm 0.00 in0.0 mm
02:00 AM 51.4°F10.8°C 39.3°F4.1°C 63% 10.9 mph S17.5 kmh S 15.2 mph24.5 kmh 30.07 in1018.3 mb 0.00 in0.0 mm 0.00 in0.0 mm 0.00 in0.0 mm
02:05 AM 51.4°F10.8°C 39.3°F4.1°C 63% 11.4 mph SSE18.3 kmh SSE 13.6 mph21.9 kmh 30.07 in1018.3 mb 0.00 in0.0 mm 0.00 in0.0 mm 0.00 in0.0 mm
02:10 AM 51.4°F10.8°C 39.3°F4.1°C 63% 9.8 mph SSE15.8 kmh SSE 14.5 mph23.3 kmh 30.08 in1018.6 mb 0.00 in0.0 mm 0.00 in0.0 mm 0.00 in0.0 mm
02:15 AM 51.3°F10.7°C 39.1°F3.9°C 63% 12.3 mph S19.8 kmh S 19.0 mph30.6 kmh 30.08 in1018.6 mb 0.00 in0.0 mm 0.00 in0.0 mm 0.00 in0.0 mm
02:20 AM 51.3°F10.7°C 39.1°F3.9°C 63% 10.8 mph S17.4 kmh S 16.8 mph27.0 kmh 30.08 in1018.6 mb 0.00 in0.0 mm 0.00 in0.0 mm 0.00 in0.0 mm
02:25 AM 51.1°F10.6°C 39.0°F3.9°C 63% 8.5 mph S13.7 kmh S 15.9 mph25.6 kmh 30.08 in1018.6 mb 0.00 in0.0 mm 0.00 in0.0 mm 0.00 in0.0 mm
02:30 AM 51.0°F10.6°C 38.8°F3.8°C 63% 10.8 mph SSE17.4 kmh SSE 15.2 mph24.5 kmh 30.08 in1018.6 mb 0.00 in0.0 mm 0.00 in0.0 mm 0.00 in0.0 mm
02:35 AM 50.9°F10.5°C 38.8°F3.8°C 63% 9.1 mph S14.6 kmh S 12.1 mph19.5 kmh 30.08 in1018.6 mb 0.00 in0.0 mm 0.00 in0.0 mm 0.00 in0.0 mm
02:40 AM 50.8°F10.4°C 38.7°F3.7°C 63% 7.3 mph S11.7 kmh S 11.4 mph18.3 kmh 30.08 in1018.6 mb 0.00 in0.0 mm 0.00 in0.0 mm 0.00 in0.0 mm
02:45 AM 50.7°F10.4°C 38.6°F3.7°C 63% 10.5 mph SSE16.9 kmh SSE 16.8 mph27.0 kmh 30.08 in1018.6 mb 0.00 in0.0 mm 0.00 in0.0 mm 0.00 in0.0 mm
02:50 AM 50.7°F10.4°C 38.5°F3.6°C 63% 7.6 mph SSW12.2 kmh SSW 12.1 mph19.5 kmh 30.08 in1018.6 mb 0.00 in0.0 mm 0.00 in0.0 mm 0.00 in0.0 mm
02:55 AM 50.5°F10.3°C 38.4°F3.6°C 63% 10.0 mph S16.1 kmh S 16.8 mph27.0 kmh 30.08 in1018.6 mb 0.00 in0.0 mm 0.00 in0.0 mm 0.00 in0.0 mm
03:00 AM 50.5°F10.3°C 38.4°F3.6°C 63% 7.1 mph S11.4 kmh S 11.4 mph18.3 kmh 30.08 in1018.6 mb 0.00 in0.0 mm 0.00 in0.0 mm 0.00 in0.0 mm
03:05 AM 50.5°F10.3°C 38.4°F3.6°C 63% 6.9 mph SSW11.1 kmh SSW 10.7 mph17.2 kmh 30.08 in1018.6 mb 0.00 in0.0 mm 0.00 in0.0 mm 0.00 in0.0 mm
03:10 AM 50.4°F10.2°C 38.2°F3.4°C 63% 6.6 mph S10.6 kmh S 9.8 mph15.8 kmh 30.08 in1018.6 mb 0.00 in0.0 mm 0.00 in0.0 mm 0.00 in0.0 mm
03:15 AM 50.4°F10.2°C 38.2°F3.4°C 63% 6.8 mph S10.9 kmh S 12.1 mph19.5 kmh 30.08 in1018.6 mb 0.00 in0.0 mm 0.00 in0.0 mm 0.00 in0.0 mm
03:20 AM 50.3°F10.2°C 38.2°F3.4°C 63% 9.3 mph SSW15.0 kmh SSW 13.0 mph20.9 kmh 30.08 in1018.6 mb 0.00 in0.0 mm 0.00 in0.0 mm 0.00 in0.0 mm
03:25 AM 50.2°F10.1°C 38.1°F3.4°C 63% 8.4 mph S13.5 kmh S 13.6 mph21.9 kmh 30.07 in1018.3 mb 0.00 in0.0 mm 0.00 in0.0 mm 0.00 in0.0 mm
03:30 AM 50.2°F10.1°C 38.1°F3.4°C 63% 8.9 mph S14.3 kmh S 15.9 mph25.6 kmh 30.08 in1018.6 mb 0.00 in0.0 mm 0.00 in0.0 mm 0.00 in0.0 mm
03:35 AM 50.2°F10.1°C 38.5°F3.6°C 64% 9.7 mph S15.6 kmh S 15.9 mph25.6 kmh 30.08 in1018.6 mb 0.00 in0.0 mm 0.00 in0.0 mm 0.00 in0.0 mm
03:40 AM 50.2°F10.1°C 38.5°F3.6°C 64% 10.5 mph SSW16.9 kmh SSW 17.4 mph28.0 kmh 30.07 in1018.3 mb 0.00 in0.0 mm 0.00 in0.0 mm 0.00 in0.0 mm
03:45 AM 50.2°F10.1°C 38.5°F3.6°C 64% 12.3 mph S19.8 kmh S 22.1 mph35.6 kmh 30.08 in1018.6 mb 0.00 in0.0 mm 0.00 in0.0 mm 0.00 in0.0 mm
03:50 AM 50.2°F10.1°C 38.5°F3.6°C 64% 9.9 mph S15.9 kmh S 17.4 mph28.0 kmh 30.08 in1018.6 mb 0.00 in0.0 mm 0.00 in0.0 mm 0.00 in0.0 mm
03:55 AM 50.2°F10.1°C 38.2°F3.4°C 63% 11.3 mph S18.2 kmh S 16.8 mph27.0 kmh 30.07 in1018.3 mb 0.00 in0.0 mm 0.00 in0.0 mm 0.00 in0.0 mm
04:00 AM 50.2°F10.1°C 38.5°F3.6°C 64% 9.5 mph SSW15.3 kmh SSW 15.9 mph25.6 kmh 30.08 in1018.6 mb 0.00 in0.0 mm 0.00 in0.0 mm 0.00 in0.0 mm
04:05 AM 50.2°F10.1°C 38.5°F3.6°C 64% 6.0 mph S9.7 kmh S 8.3 mph13.4 kmh 30.08 in1018.6 mb 0.00 in0.0 mm 0.00 in0.0 mm 0.00 in0.0 mm
04:10 AM 50.1°F10.1°C 38.4°F3.6°C 64% 6.9 mph S11.1 kmh S 11.4 mph18.3 kmh 30.08 in1018.6 mb 0.00 in0.0 mm 0.00 in0.0 mm 0.00 in0.0 mm
04:15 AM 50.0°F10.0°C 38.3°F3.5°C 64% 8.9 mph S14.3 kmh S 13.6 mph21.9 kmh 30.08 in1018.6 mb 0.00 in0.0 mm 0.00 in0.0 mm 0.00 in0.0 mm
04:20 AM 50.0°F10.0°C 38.3°F3.5°C 64% 6.8 mph SSE10.9 kmh SSE 14.5 mph23.3 kmh 30.08 in1018.6 mb 0.00 in0.0 mm 0.00 in0.0 mm 0.00 in0.0 mm
04:25 AM 50.1°F10.1°C 38.0°F3.3°C 63% 10.6 mph SSW17.1 kmh SSW 16.8 mph27.0 kmh 30.09 in1019.0 mb 0.00 in0.0 mm 0.00 in0.0 mm 0.00 in0.0 mm
04:30 AM 50.2°F10.1°C 38.1°F3.4°C 63% 8.0 mph SSW12.9 kmh SSW 10.7 mph17.2 kmh 30.09 in1019.0 mb 0.00 in0.0 mm 0.00 in0.0 mm 0.00 in0.0 mm
04:35 AM 50.2°F10.1°C 38.1°F3.4°C 63% 8.7 mph SW14.0 kmh SW 14.5 mph23.3 kmh 30.08 in1018.6 mb 0.00 in0.0 mm 0.00 in0.0 mm 0.00 in0.0 mm
04:40 AM 50.2°F10.1°C 37.8°F3.2°C 62% 7.2 mph S11.6 kmh S 18.3 mph29.5 kmh 30.08 in1018.6 mb 0.00 in0.0 mm 0.00 in0.0 mm 0.00 in0.0 mm
04:45 AM 50.2°F10.1°C 37.7°F3.2°C 62% 5.4 mph S8.7 kmh S 8.3 mph13.4 kmh 30.08 in1018.6 mb 0.00 in0.0 mm 0.00 in0.0 mm 0.00 in0.0 mm
04:50 AM 50.1°F10.1°C 37.6°F3.1°C 62% 4.7 mph SSW7.6 kmh SSW 10.7 mph17.2 kmh 30.08 in1018.6 mb 0.00 in0.0 mm 0.00 in0.0 mm 0.00 in0.0 mm
04:55 AM 49.9°F9.9°C 37.4°F3.0°C 62% 4.7 mph SSW7.6 kmh SSW 6.0 mph9.7 kmh 30.09 in1019.0 mb 0.00 in0.0 mm 0.00 in0.0 mm 0.00 in0.0 mm
05:00 AM 49.7°F9.8°C 37.3°F2.9°C 62% 5.3 mph S8.5 kmh S 9.2 mph14.8 kmh 30.09 in1019.0 mb 0.00 in0.0 mm 0.00 in0.0 mm 0.00 in0.0 mm
05:05 AM 49.6°F9.8°C 37.1°F2.8°C 62% 3.6 mph ESE5.8 kmh ESE 6.9 mph11.1 kmh 30.09 in1019.0 mb 0.00 in0.0 mm 0.00 in0.0 mm 0.00 in0.0 mm
05:10 AM 49.4°F9.7°C 36.9°F2.7°C 62% 4.2 mph SSW6.8 kmh SSW 7.6 mph12.2 kmh 30.09 in1019.0 mb 0.00 in0.0 mm 0.00 in0.0 mm 0.00 in0.0 mm
05:15 AM 49.3°F9.6°C 36.8°F2.7°C 62% 5.1 mph S8.2 kmh S 8.3 mph13.4 kmh 30.09 in1019.0 mb 0.00 in0.0 mm 0.00 in0.0 mm 0.00 in0.0 mm
05:20 AM 49.1°F9.5°C 36.7°F2.6°C 62% 2.2 mph SSW3.5 kmh SSW 3.8 mph6.1 kmh 30.09 in1019.0 mb 0.00 in0.0 mm 0.00 in0.0 mm 0.00 in0.0 mm
05:25 AM 49.0°F9.4°C 36.6°F2.6°C 62% 3.4 mph SW5.5 kmh SW 7.6 mph12.2 kmh 30.09 in1019.0 mb 0.00 in0.0 mm 0.00 in0.0 mm 0.00 in0.0 mm
05:30 AM 48.9°F9.4°C 36.5°F2.5°C 62% 2.5 mph SW4.0 kmh SW 5.4 mph8.7 kmh 30.09 in1019.0 mb 0.00 in0.0 mm 0.00 in0.0 mm 0.00 in0.0 mm
05:35 AM 48.7°F9.3°C 36.3°F2.4°C 62% 2.3 mph WNW3.7 kmh WNW 5.4 mph8.7 kmh 30.09 in1019.0 mb 0.00 in0.0 mm 0.00 in0.0 mm 0.00 in0.0 mm
05:40 AM 48.6°F9.2°C 36.3°F2.4°C 62% 2.4 mph SSW3.9 kmh SSW 4.5 mph7.2 kmh 30.09 in1019.0 mb 0.00 in0.0 mm 0.00 in0.0 mm 0.00 in0.0 mm
05:45 AM 48.4°F9.1°C 36.4°F2.4°C 63% 2.1 mph SW3.4 kmh SW 3.8 mph6.1 kmh 30.09 in1019.0 mb 0.00 in0.0 mm 0.00 in0.0 mm 0.00 in0.0 mm
05:50 AM 48.1°F8.9°C 36.1°F2.3°C 63% 2.1 mph SW3.4 kmh SW 4.5 mph7.2 kmh 30.09 in1019.0 mb 0.00 in0.0 mm 0.00 in0.0 mm 0.00 in0.0 mm
05:55 AM 47.8°F8.8°C 35.9°F2.2°C 63% 4.1 mph SSW6.6 kmh SSW 6.9 mph11.1 kmh 30.10 in1019.3 mb 0.00 in0.0 mm 0.00 in0.0 mm 0.00 in0.0 mm
06:00 AM 47.9°F8.8°C 35.9°F2.2°C 63% 3.0 mph SW4.8 kmh SW 5.4 mph8.7 kmh 30.10 in1019.3 mb 0.00 in0.0 mm 0.00 in0.0 mm 0.00 in0.0 mm
06:05 AM 48.0°F8.9°C 36.0°F2.2°C 63% 3.8 mph SW6.1 kmh SW 4.5 mph7.2 kmh 30.10 in1019.3 mb 0.00 in0.0 mm 0.00 in0.0 mm 0.00 in0.0 mm
06:10 AM 48.0°F8.9°C 36.0°F2.2°C 63% 2.6 mph SW4.2 kmh SW 4.5 mph7.2 kmh 30.10 in1019.3 mb 0.00 in0.0 mm 0.00 in0.0 mm 0.00 in0.0 mm
06:15 AM 47.8°F8.8°C 35.9°F2.2°C 63% 2.5 mph WSW4.0 kmh WSW 4.5 mph7.2 kmh 30.11 in1019.6 mb 0.00 in0.0 mm 0.00 in0.0 mm 0.00 in0.0 mm
06:20 AM 47.8°F8.8°C 35.9°F2.2°C 63% 1.9 mph SW3.1 kmh SW 3.8 mph6.1 kmh 30.10 in1019.3 mb 0.00 in0.0 mm 0.00 in0.0 mm 0.00 in0.0 mm
06:25 AM 47.7°F8.7°C 35.8°F2.1°C 63% 4.3 mph S6.9 kmh S 7.6 mph12.2 kmh 30.11 in1019.6 mb 0.00 in0.0 mm 0.00 in0.0 mm 0.00 in0.0 mm
06:30 AM 47.7°F8.7°C 36.1°F2.3°C 64% 3.2 mph E5.1 kmh E 5.4 mph8.7 kmh 30.11 in1019.6 mb 0.00 in0.0 mm 0.00 in0.0 mm 0.00 in0.0 mm
06:35 AM 47.6°F8.7°C 36.1°F2.3°C 64% 2.8 mph WSW4.5 kmh WSW 5.4 mph8.7 kmh 30.10 in1019.3 mb 0.00 in0.0 mm 0.00 in0.0 mm 0.00 in0.0 mm
06:40 AM 47.7°F8.7°C 36.1°F2.3°C 64% 2.2 mph NE3.5 kmh NE 3.1 mph5.0 kmh 30.10 in1019.3 mb 0.00 in0.0 mm 0.00 in0.0 mm 0.00 in0.0 mm
06:45 AM 47.8°F8.8°C 36.0°F2.2°C 64% 2.1 mph N3.4 kmh N 3.8 mph6.1 kmh 30.10 in1019.3 mb 0.00 in0.0 mm 0.00 in0.0 mm 0.00 in0.0 mm
06:50 AM 47.7°F8.7°C 35.7°F2.1°C 63% 3.3 mph N5.3 kmh N 6.9 mph11.1 kmh 30.10 in1019.3 mb 0.00 in0.0 mm 0.00 in0.0 mm 0.00 in0.0 mm
06:55 AM 47.6°F8.7°C 35.9°F2.2°C 64% 3.2 mph S5.1 kmh S 4.5 mph7.2 kmh 30.10 in1019.3 mb 0.00 in0.0 mm 0.00 in0.0 mm 0.00 in0.0 mm
07:00 AM 47.5°F8.6°C 35.9°F2.2°C 64% 1.7 mph E2.7 kmh E 3.1 mph5.0 kmh 30.10 in1019.3 mb 0.00 in0.0 mm 0.00 in0.0 mm 0.00 in0.0 mm
07:05 AM 47.5°F8.6°C 35.9°F2.2°C 64% 5.1 mph SW8.2 kmh SW 13.0 mph20.9 kmh 30.11 in1019.6 mb 0.00 in0.0 mm 0.00 in0.0 mm 0.00 in0.0 mm
07:10 AM 47.7°F8.7°C 36.1°F2.3°C 64% 4.8 mph SW7.7 kmh SW 7.6 mph12.2 kmh 30.11 in1019.6 mb 0.00 in0.0 mm 0.00 in0.0 mm 0.00 in0.0 mm
07:15 AM 47.8°F8.8°C 36.3°F2.4°C 64% 3.8 mph SW6.1 kmh SW 8.3 mph13.4 kmh 30.11 in1019.6 mb 0.00 in0.0 mm 0.00 in0.0 mm 0.00 in0.0 mm
07:20 AM 47.8°F8.8°C 36.3°F2.4°C 64% 2.6 mph SW4.2 kmh SW 4.5 mph7.2 kmh 30.11 in1019.6 mb 0.00 in0.0 mm 0.00 in0.0 mm 0.00 in0.0 mm
07:25 AM 47.8°F8.8°C 36.3°F2.4°C 64% 4.1 mph E6.6 kmh E 6.9 mph11.1 kmh 30.11 in1019.6 mb 0.00 in0.0 mm 0.00 in0.0 mm 0.00 in0.0 mm
07:30 AM 47.9°F8.8°C 36.3°F2.4°C 64% 3.4 mph SW5.5 kmh SW 5.4 mph8.7 kmh 30.11 in1019.6 mb 0.00 in0.0 mm 0.00 in0.0 mm 0.00 in0.0 mm
07:35 AM 48.1°F8.9°C 36.5°F2.5°C 64% 4.2 mph SW6.8 kmh SW 6.9 mph11.1 kmh 30.11 in1019.6 mb 0.00 in0.0 mm 0.00 in0.0 mm 0.00 in0.0 mm
07:40 AM 48.3°F9.1°C 36.6°F2.6°C 64% 5.2 mph SSW8.4 kmh SSW 12.1 mph19.5 kmh 30.11 in1019.6 mb 0.00 in0.0 mm 0.00 in0.0 mm 0.00 in0.0 mm
07:45 AM 48.6°F9.2°C 36.6°F2.6°C 63% 6.2 mph SSE10.0 kmh SSE 10.7 mph17.2 kmh 30.11 in1019.6 mb 0.00 in0.0 mm 0.00 in0.0 mm 0.00 in0.0 mm
07:50 AM 49.0°F9.4°C 36.9°F2.7°C 63% 4.5 mph S7.2 kmh S 7.6 mph12.2 kmh 30.10 in1019.3 mb 0.00 in0.0 mm 0.00 in0.0 mm 0.00 in0.0 mm
07:55 AM 49.4°F9.7°C 36.9°F2.7°C 62% 3.3 mph SE5.3 kmh SE 6.0 mph9.7 kmh 30.10 in1019.3 mb 0.00 in0.0 mm 0.00 in0.0 mm 0.00 in0.0 mm
08:00 AM 49.7°F9.8°C 37.1°F2.8°C 62% 5.2 mph S8.4 kmh S 11.4 mph18.3 kmh 30.10 in1019.3 mb 0.00 in0.0 mm 0.00 in0.0 mm 0.00 in0.0 mm
08:05 AM 49.8°F9.9°C 36.9°F2.7°C 61% 7.4 mph S11.9 kmh S 12.1 mph19.5 kmh 30.10 in1019.3 mb 0.00 in0.0 mm 0.00 in0.0 mm 0.00 in0.0 mm
08:10 AM 49.8°F9.9°C 36.9°F2.7°C 61% 6.9 mph SSE11.1 kmh SSE 13.0 mph20.9 kmh 30.10 in1019.3 mb 0.00 in0.0 mm 0.00 in0.0 mm 0.00 in0.0 mm
08:15 AM 49.8°F9.9°C 36.9°F2.7°C 61% 2.3 mph S3.7 kmh S 4.5 mph7.2 kmh 30.11 in1019.6 mb 0.00 in0.0 mm 0.00 in0.0 mm 0.00 in0.0 mm
08:20 AM 50.0°F10.0°C 37.3°F2.9°C 61% 3.4 mph S5.5 kmh S 9.2 mph14.8 kmh 30.11 in1019.6 mb 0.00 in0.0 mm 0.00 in0.0 mm 0.00 in0.0 mm
08:25 AM 50.2°F10.1°C 37.3°F2.9°C 61% 6.1 mph SSW9.8 kmh SSW 9.8 mph15.8 kmh 30.11 in1019.6 mb 0.00 in0.0 mm 0.00 in0.0 mm 0.00 in0.0 mm
08:30 AM 50.0°F10.0°C 37.1°F2.8°C 61% 10.2 mph S16.4 kmh S 15.2 mph24.5 kmh 30.11 in1019.6 mb 0.00 in0.0 mm 0.00 in0.0 mm 0.00 in0.0 mm
08:35 AM 49.8°F9.9°C 36.9°F2.7°C 61% 8.3 mph S13.4 kmh S 12.1 mph19.5 kmh 30.11 in1019.6 mb 0.00 in0.0 mm 0.00 in0.0 mm 0.00 in0.0 mm
08:40 AM 49.9°F9.9°C 37.0°F2.8°C 61% 6.4 mph SSW10.3 kmh SSW 11.4 mph18.3 kmh 30.11 in1019.6 mb 0.00 in0.0 mm 0.00 in0.0 mm 0.00 in0.0 mm
08:45 AM 49.9°F9.9°C 37.0°F2.8°C 61% 8.1 mph S13.0 kmh S 11.4 mph18.3 kmh 30.11 in1019.6 mb 0.00 in0.0 mm 0.00 in0.0 mm 0.00 in0.0 mm
08:50 AM 49.8°F9.9°C 36.9°F2.7°C 61% 5.9 mph S9.5 kmh S 8.3 mph13.4 kmh 30.11 in1019.6 mb 0.00 in0.0 mm 0.00 in0.0 mm 0.00 in0.0 mm
08:55 AM 50.0°F10.0°C 37.1°F2.8°C 61% 5.8 mph S9.3 kmh S 9.2 mph14.8 kmh 30.11 in1019.6 mb 0.00 in0.0 mm 0.00 in0.0 mm 0.00 in0.0 mm
09:00 AM 50.0°F10.0°C 37.1°F2.8°C 61% 5.5 mph S8.9 kmh S 8.3 mph13.4 kmh 30.11 in1019.6 mb 0.00 in0.0 mm 0.00 in0.0 mm 0.00 in0.0 mm
09:05 AM 50.1°F10.1°C 37.2°F2.9°C 61% 6.6 mph S10.6 kmh S 9.8 mph15.8 kmh 30.11 in1019.6 mb 0.00 in0.0 mm 0.00 in0.0 mm 0.00 in0.0 mm
09:10 AM 50.2°F10.1°C 37.3°F2.9°C 61% 6.7 mph SSW10.8 kmh SSW 14.5 mph23.3 kmh 30.11 in1019.6 mb 0.00 in0.0 mm 0.00 in0.0 mm 0.00 in0.0 mm
09:15 AM 50.2°F10.1°C 37.3°F2.9°C 61% 8.6 mph SSW13.8 kmh SSW 13.0 mph20.9 kmh 30.12 in1020.0 mb 0.00 in0.0 mm 0.00 in0.0 mm 0.00 in0.0 mm
09:20 AM 50.2°F10.1°C 37.3°F2.9°C 61% 9.0 mph S14.5 kmh S 14.5 mph23.3 kmh 30.12 in1020.0 mb 0.00 in0.0 mm 0.00 in0.0 mm 0.00 in0.0 mm
09:25 AM 50.1°F10.1°C 37.2°F2.9°C 61% 5.7 mph SSW9.2 kmh SSW 9.8 mph15.8 kmh 30.11 in1019.6 mb 0.00 in0.0 mm 0.00 in0.0 mm 0.00 in0.0 mm
09:30 AM 50.0°F10.0°C 37.1°F2.8°C 61% 6.5 mph SSW10.5 kmh SSW 12.1 mph19.5 kmh 30.12 in1020.0 mb 0.00 in0.0 mm 0.00 in0.0 mm 0.00 in0.0 mm
09:35 AM 50.0°F10.0°C 37.1°F2.8°C 61% 7.4 mph S11.9 kmh S 12.1 mph19.5 kmh 30.12 in1020.0 mb 0.00 in0.0 mm 0.00 in0.0 mm 0.00 in0.0 mm
09:40 AM 50.0°F10.0°C 37.1°F2.8°C 61% 4.6 mph S7.4 kmh S 6.9 mph11.1 kmh 30.11 in1019.6 mb 0.00 in0.0 mm 0.00 in0.0 mm 0.00 in0.0 mm
09:45 AM 50.0°F10.0°C 37.1°F2.8°C 61% 5.3 mph SSW8.5 kmh SSW 10.7 mph17.2 kmh 30.12 in1020.0 mb 0.00 in0.0 mm 0.00 in0.0 mm 0.00 in0.0 mm
09:50 AM 50.0°F10.0°C 37.1°F2.8°C 61% 6.2 mph S10.0 kmh S 10.7 mph17.2 kmh 30.12 in1020.0 mb 0.00 in0.0 mm 0.00 in0.0 mm 0.00 in0.0 mm
09:55 AM 50.0°F10.0°C 37.1°F2.8°C 61% 7.2 mph SSW11.6 kmh SSW 9.8 mph15.8 kmh 30.12 in1020.0 mb 0.00 in0.0 mm 0.00 in0.0 mm 0.00 in0.0 mm
10:00 AM 49.9°F9.9°C 37.0°F2.8°C 61% 6.9 mph SSW11.1 kmh SSW 11.4 mph18.3 kmh 30.12 in1020.0 mb 0.00 in0.0 mm 0.00 in0.0 mm 0.00 in0.0 mm
10:05 AM 49.8°F9.9°C 36.9°F2.7°C 61% 5.4 mph SW8.7 kmh SW 6.0 mph9.7 kmh 30.12 in1020.0 mb 0.00 in0.0 mm 0.00 in0.0 mm 0.00 in0.0 mm
10:10 AM 49.8°F9.9°C 36.9°F2.7°C 61% 6.1 mph SSW9.8 kmh SSW 9.8 mph15.8 kmh 30.12 in1020.0 mb 0.00 in0.0 mm 0.00 in0.0 mm 0.00 in0.0 mm
10:15 AM 49.8°F9.9°C 37.0°F2.8°C 61% 3.6 mph SW5.8 kmh SW 7.6 mph12.2 kmh 30.12 in1020.0 mb 0.00 in0.0 mm 0.00 in0.0 mm 0.00 in0.0 mm
10:20 AM 49.9°F9.9°C 37.3°F2.9°C 62% 8.6 mph SSW13.8 kmh SSW 12.1 mph19.5 kmh 30.12 in1020.0 mb 0.00 in0.0 mm 0.00 in0.0 mm 0.00 in0.0 mm
10:25 AM 50.1°F10.1°C 37.1°F2.8°C 61% 5.5 mph S8.9 kmh S 13.0 mph20.9 kmh 30.12 in1020.0 mb 0.00 in0.0 mm 0.00 in0.0 mm 0.00 in0.0 mm
10:30 AM 50.2°F10.1°C 37.3°F2.9°C 61% 8.7 mph S14.0 kmh S 14.5 mph23.3 kmh 30.12 in1020.0 mb 0.00 in0.0 mm 0.00 in0.0 mm 0.00 in0.0 mm
10:35 AM 50.1°F10.1°C 37.2°F2.9°C 61% 8.8 mph S14.2 kmh S 12.1 mph19.5 kmh 30.12 in1020.0 mb 0.00 in0.0 mm 0.00 in0.0 mm 0.00 in0.0 mm
10:40 AM 50.0°F10.0°C 37.1°F2.8°C 61% 7.1 mph S11.4 kmh S 11.4 mph18.3 kmh 30.11 in1019.6 mb 0.00 in0.0 mm 0.00 in0.0 mm 0.00 in0.0 mm
10:45 AM 49.9°F9.9°C 37.0°F2.8°C 61% 6.7 mph S10.8 kmh S 13.6 mph21.9 kmh 30.11 in1019.6 mb 0.00 in0.0 mm 0.00 in0.0 mm 0.00 in0.0 mm
10:50 AM 49.9°F9.9°C 36.9°F2.7°C 61% 6.6 mph S10.6 kmh S 9.2 mph14.8 kmh 30.11 in1019.6 mb 0.00 in0.0 mm 0.00 in0.0 mm 0.00 in0.0 mm
10:55 AM 50.0°F10.0°C 36.7°F2.6°C 60% 7.6 mph S12.2 kmh S 12.1 mph19.5 kmh 30.11 in1019.6 mb 0.00 in0.0 mm 0.00 in0.0 mm 0.00 in0.0 mm
11:00 AM 50.0°F10.0°C 36.7°F2.6°C 60% 7.6 mph SSW12.2 kmh SSW 13.6 mph21.9 kmh 30.11 in1019.6 mb 0.00 in0.0 mm 0.00 in0.0 mm 0.00 in0.0 mm
11:05 AM 49.8°F9.9°C 36.5°F2.5°C 60% 9.7 mph SSW15.6 kmh SSW 15.2 mph24.5 kmh 30.11 in1019.6 mb 0.00 in0.0 mm 0.00 in0.0 mm 0.00 in0.0 mm
11:10 AM 49.8°F9.9°C 36.5°F2.5°C 60% 6.8 mph SSW10.9 kmh SSW 9.2 mph14.8 kmh 30.11 in1019.6 mb 0.00 in0.0 mm 0.00 in0.0 mm 0.00 in0.0 mm
11:15 AM 49.8°F9.9°C 36.5°F2.5°C 60% 10.9 mph S17.5 kmh S 15.9 mph25.6 kmh 30.11 in1019.6 mb 0.00 in0.0 mm 0.00 in0.0 mm 0.00 in0.0 mm
11:20 AM 49.8°F9.9°C 36.5°F2.5°C 60% 7.2 mph S11.6 kmh S 10.7 mph17.2 kmh 30.11 in1019.6 mb 0.00 in0.0 mm 0.00 in0.0 mm 0.00 in0.0 mm
11:25 AM 49.8°F9.9°C 36.5°F2.5°C 60% 5.2 mph S8.4 kmh S 7.6 mph12.2 kmh 30.11 in1019.6 mb 0.00 in0.0 mm 0.00 in0.0 mm 0.00 in0.0 mm
11:30 AM 49.8°F9.9°C 36.5°F2.5°C 60% 6.3 mph SE10.1 kmh SE 12.1 mph19.5 kmh 30.11 in1019.6 mb 0.00 in0.0 mm 0.00 in0.0 mm 0.00 in0.0 mm
11:35 AM 49.8°F9.9°C 36.5°F2.5°C 60% 6.5 mph SSE10.5 kmh SSE 9.8 mph15.8 kmh 30.11 in1019.6 mb 0.00 in0.0 mm 0.00 in0.0 mm 0.00 in0.0 mm
11:40 AM 49.8°F9.9°C 36.5°F2.5°C 60% 4.1 mph SSE6.6 kmh SSE 6.9 mph11.1 kmh 30.10 in1019.3 mb 0.00 in0.0 mm 0.00 in0.0 mm 0.00 in0.0 mm
11:45 AM 49.9°F9.9°C 36.5°F2.5°C 60% 3.8 mph S6.1 kmh S 8.3 mph13.4 kmh 30.10 in1019.3 mb 0.00 in0.0 mm 0.00 in0.0 mm 0.00 in0.0 mm
11:50 AM 50.0°F10.0°C 36.7°F2.6°C 60% 1.3 mph E2.1 kmh E 3.1 mph5.0 kmh 30.10 in1019.3 mb 0.00 in0.0 mm 0.00 in0.0 mm 0.00 in0.0 mm
11:55 AM 50.0°F10.0°C 36.7°F2.6°C 60% 0.8 mph SE1.3 kmh SE 4.5 mph7.2 kmh 30.11 in1019.6 mb 0.00 in0.0 mm 0.00 in0.0 mm 0.00 in0.0 mm
12:00 PM 50.2°F10.1°C 36.8°F2.7°C 60% 3.5 mph SSE5.6 kmh SSE 5.4 mph8.7 kmh 30.10 in1019.3 mb 0.00 in0.0 mm 0.00 in0.0 mm 0.00 in0.0 mm
12:05 PM 50.2°F10.1°C 36.8°F2.7°C 60% 3.1 mph SE5.0 kmh SE 4.5 mph7.2 kmh 30.10 in1019.3 mb 0.00 in0.0 mm 0.00 in0.0 mm 0.00 in0.0 mm
12:10 PM 50.2°F10.1°C 36.8°F2.7°C 60% 3.0 mph SE4.8 kmh SE 4.5 mph7.2 kmh 30.10 in1019.3 mb 0.00 in0.0 mm 0.00 in0.0 mm 0.00 in0.0 mm
12:15 PM 50.2°F10.1°C 36.8°F2.7°C 60% 3.4 mph S5.5 kmh S 5.4 mph8.7 kmh 30.10 in1019.3 mb 0.00 in0.0 mm 0.00 in0.0 mm 0.00 in0.0 mm
12:20 PM 50.2°F10.1°C 36.9°F2.7°C 60% 2.1 mph E3.4 kmh E 4.5 mph7.2 kmh 30.09 in1019.0 mb 0.00 in0.0 mm 0.00 in0.0 mm 0.00 in0.0 mm
12:25 PM 50.4°F10.2°C 37.0°F2.8°C 60% 1.6 mph SW2.6 kmh SW 4.5 mph7.2 kmh 30.10 in1019.3 mb 0.00 in0.0 mm 0.00 in0.0 mm 0.00 in0.0 mm
12:30 PM 50.4°F10.2°C 37.0°F2.8°C 60% 4.2 mph SE6.8 kmh SE 6.9 mph11.1 kmh 30.10 in1019.3 mb 0.00 in0.0 mm 0.00 in0.0 mm 0.00 in0.0 mm
12:35 PM 50.4°F10.2°C 37.4°F3.0°C 61% 3.0 mph SW4.8 kmh SW 4.5 mph7.2 kmh 30.10 in1019.3 mb 0.00 in0.0 mm 0.00 in0.0 mm 0.00 in0.0 mm
12:40 PM 50.4°F10.2°C 37.4°F3.0°C 61% 4.7 mph SE7.6 kmh SE 8.3 mph13.4 kmh 30.09 in1019.0 mb 0.00 in0.0 mm 0.00 in0.0 mm 0.00 in0.0 mm
12:45 PM 50.4°F10.2°C 37.4°F3.0°C 61% 5.1 mph S8.2 kmh S 9.2 mph14.8 kmh 30.09 in1019.0 mb 0.00 in0.0 mm 0.00 in0.0 mm 0.00 in0.0 mm
12:50 PM 50.4°F10.2°C 37.4°F3.0°C 61% 5.7 mph SE9.2 kmh SE 7.6 mph12.2 kmh 30.09 in1019.0 mb 0.00 in0.0 mm 0.00 in0.0 mm 0.00 in0.0 mm
12:55 PM 50.4°F10.2°C 37.4°F3.0°C 61% 3.1 mph SSW5.0 kmh SSW 5.4 mph8.7 kmh 30.09 in1019.0 mb 0.00 in0.0 mm 0.00 in0.0 mm 0.00 in0.0 mm
01:00 PM 50.4°F10.2°C 37.5°F3.1°C 61% 4.0 mph SSE6.4 kmh SSE 6.9 mph11.1 kmh 30.09 in1019.0 mb 0.00 in0.0 mm 0.00 in0.0 mm 0.00 in0.0 mm
01:05 PM 50.5°F10.3°C 37.6°F3.1°C 61% 4.7 mph SSE7.6 kmh SSE 7.6 mph12.2 kmh 30.09 in1019.0 mb 0.00 in0.0 mm 0.00 in0.0 mm 0.00 in0.0 mm
01:10 PM 50.5°F10.3°C 37.6°F3.1°C 61% 3.4 mph SSE5.5 kmh SSE 6.0 mph9.7 kmh 30.09 in1019.0 mb 0.00 in0.0 mm 0.00 in0.0 mm 0.00 in0.0 mm
01:15 PM 50.6°F10.3°C 37.7°F3.2°C 61% 6.3 mph SE10.1 kmh SE 8.3 mph13.4 kmh 30.08 in1018.6 mb 0.00 in0.0 mm 0.00 in0.0 mm 0.00 in0.0 mm
01:20 PM 50.9°F10.5°C 37.9°F3.3°C 61% 4.8 mph SSE7.7 kmh SSE 6.9 mph11.1 kmh 30.08 in1018.6 mb 0.00 in0.0 mm 0.00 in0.0 mm 0.00 in0.0 mm
01:25 PM 51.2°F10.7°C 38.2°F3.4°C 61% 4.1 mph S6.6 kmh S 7.6 mph12.2 kmh 30.08 in1018.6 mb 0.00 in0.0 mm 0.00 in0.0 mm 0.00 in0.0 mm
01:30 PM 51.3°F10.7°C 38.3°F3.5°C 61% 1.6 mph SW2.6 kmh SW 3.1 mph5.0 kmh 30.08 in1018.6 mb 0.00 in0.0 mm 0.00 in0.0 mm 0.00 in0.0 mm
01:35 PM 51.5°F10.8°C 38.5°F3.6°C 61% 2.3 mph SSW3.7 kmh SSW 4.5 mph7.2 kmh 30.08 in1018.6 mb 0.00 in0.0 mm 0.00 in0.0 mm 0.00 in0.0 mm
01:40 PM 51.6°F10.9°C 38.6°F3.7°C 61% 4.7 mph S7.6 kmh S 8.3 mph13.4 kmh 30.08 in1018.6 mb 0.00 in0.0 mm 0.00 in0.0 mm 0.00 in0.0 mm
01:45 PM 51.6°F10.9°C 38.6°F3.7°C 61% 5.6 mph S9.0 kmh S 6.9 mph11.1 kmh 30.09 in1019.0 mb 0.00 in0.0 mm 0.00 in0.0 mm 0.00 in0.0 mm
01:50 PM 51.4°F10.8°C 38.4°F3.6°C 61% 5.3 mph S8.5 kmh S 6.9 mph11.1 kmh 30.09 in1019.0 mb 0.00 in0.0 mm 0.00 in0.0 mm 0.00 in0.0 mm
01:55 PM 51.3°F10.7°C 38.3°F3.5°C 61% 4.5 mph SW7.2 kmh SW 6.9 mph11.1 kmh 30.09 in1019.0 mb 0.00 in0.0 mm 0.00 in0.0 mm 0.00 in0.0 mm
02:00 PM 51.2°F10.7°C 38.2°F3.4°C 61% 3.8 mph SSE6.1 kmh SSE 5.4 mph8.7 kmh 30.09 in1019.0 mb 0.00 in0.0 mm 0.00 in0.0 mm 0.00 in0.0 mm
02:05 PM 51.1°F10.6°C 38.1°F3.4°C 61% 3.8 mph SE6.1 kmh SE 4.5 mph7.2 kmh 30.09 in1019.0 mb 0.00 in0.0 mm 0.00 in0.0 mm 0.00 in0.0 mm
02:10 PM 51.0°F10.6°C 38.0°F3.3°C 61% 4.8 mph SSE7.7 kmh SSE 9.2 mph14.8 kmh 30.09 in1019.0 mb 0.00 in0.0 mm 0.00 in0.0 mm 0.00 in0.0 mm
02:15 PM 50.9°F10.5°C 37.9°F3.3°C 61% 4.6 mph S7.4 kmh S 7.6 mph12.2 kmh 30.09 in1019.0 mb 0.00 in0.0 mm 0.00 in0.0 mm 0.00 in0.0 mm
02:20 PM 50.9°F10.5°C 37.9°F3.3°C 61% 6.8 mph S10.9 kmh S 10.7 mph17.2 kmh 30.09 in1019.0 mb 0.00 in0.0 mm 0.00 in0.0 mm 0.00 in0.0 mm
02:25 PM 50.9°F10.5°C 37.9°F3.3°C 61% 5.2 mph S8.4 kmh S 8.3 mph13.4 kmh 30.09 in1019.0 mb 0.00 in0.0 mm 0.00 in0.0 mm 0.00 in0.0 mm
02:30 PM 50.9°F10.5°C 37.9°F3.3°C 61% 4.8 mph S7.7 kmh S 6.9 mph11.1 kmh 30.09 in1019.0 mb 0.00 in0.0 mm 0.00 in0.0 mm 0.00 in0.0 mm
02:35 PM 50.7°F10.4°C 37.8°F3.2°C 61% 3.6 mph SSE5.8 kmh SSE 6.0 mph9.7 kmh 30.08 in1018.6 mb 0.00 in0.0 mm 0.00 in0.0 mm 0.00 in0.0 mm
02:40 PM 50.7°F10.4°C 38.2°F3.4°C 62% 3.0 mph SSW4.8 kmh SSW 3.8 mph6.1 kmh 30.08 in1018.6 mb 0.00 in0.0 mm 0.00 in0.0 mm 0.00 in0.0 mm
02:45 PM 50.7°F10.4°C 38.2°F3.4°C 62% 3.5 mph S5.6 kmh S 4.5 mph7.2 kmh 30.09 in1019.0 mb 0.00 in0.0 mm 0.00 in0.0 mm 0.00 in0.0 mm
02:50 PM 50.7°F10.4°C 38.1°F3.4°C 62% 3.8 mph SSW6.1 kmh SSW 6.0 mph9.7 kmh 30.09 in1019.0 mb 0.00 in0.0 mm 0.00 in0.0 mm 0.00 in0.0 mm
02:55 PM 50.5°F10.3°C 38.0°F3.3°C 62% 4.2 mph S6.8 kmh S 6.9 mph11.1 kmh 30.09 in1019.0 mb 0.00 in0.0 mm 0.00 in0.0 mm 0.00 in0.0 mm
03:00 PM 50.5°F10.3°C 38.0°F3.3°C 62% 3.7 mph SSE6.0 kmh SSE 5.4 mph8.7 kmh 30.09 in1019.0 mb 0.00 in0.0 mm 0.00 in0.0 mm 0.00 in0.0 mm
03:05 PM 50.5°F10.3°C 38.0°F3.3°C 62% 3.2 mph S5.1 kmh S 5.4 mph8.7 kmh 30.08 in1018.6 mb 0.00 in0.0 mm 0.00 in0.0 mm 0.00 in0.0 mm
03:10 PM 50.5°F10.3°C 38.0°F3.3°C 62% 4.0 mph SSW6.4 kmh SSW 6.9 mph11.1 kmh 30.09 in1019.0 mb 0.00 in0.0 mm 0.00 in0.0 mm 0.00 in0.0 mm
03:15 PM 50.4°F10.2°C 37.9°F3.3°C 62% 3.7 mph S6.0 kmh S 6.9 mph11.1 kmh 30.09 in1019.0 mb 0.00 in0.0 mm 0.00 in0.0 mm 0.00 in0.0 mm
03:20 PM 50.4°F10.2°C 37.8°F3.2°C 62% 3.4 mph SSW5.5 kmh SSW 4.5 mph7.2 kmh 30.08 in1018.6 mb 0.00 in0.0 mm 0.00 in0.0 mm 0.00 in0.0 mm
03:25 PM 50.4°F10.2°C 37.8°F3.2°C 62% 3.6 mph S5.8 kmh S 4.5 mph7.2 kmh 30.08 in1018.6 mb 0.00 in0.0 mm 0.00 in0.0 mm 0.00 in0.0 mm
03:30 PM 50.4°F10.2°C 37.8°F3.2°C 62% 2.4 mph S3.9 kmh S 4.5 mph7.2 kmh 30.09 in1019.0 mb 0.00 in0.0 mm 0.00 in0.0 mm 0.00 in0.0 mm
03:35 PM 50.3°F10.2°C 37.8°F3.2°C 62% 2.2 mph S3.5 kmh S 3.1 mph5.0 kmh 30.09 in1019.0 mb 0.00 in0.0 mm 0.00 in0.0 mm 0.00 in0.0 mm
03:40 PM 50.2°F10.1°C 37.7°F3.2°C 62% 0.9 mph WSW1.4 kmh WSW 2.2 mph3.5 kmh 30.09 in1019.0 mb 0.00 in0.0 mm 0.00 in0.0 mm 0.00 in0.0 mm
03:45 PM 50.2°F10.1°C 37.7°F3.2°C 62% 0.4 mph S0.6 kmh S 1.6 mph2.6 kmh 30.08 in1018.6 mb 0.00 in0.0 mm 0.00 in0.0 mm 0.00 in0.0 mm
03:50 PM 50.1°F10.1°C 37.6°F3.1°C 62% 0.1 mph NW0.2 kmh NW 1.6 mph2.6 kmh 30.09 in1019.0 mb 0.00 in0.0 mm 0.00 in0.0 mm 0.00 in0.0 mm
03:55 PM 50.0°F10.0°C 37.5°F3.1°C 62% 0.3 mph NW0.5 kmh NW 1.6 mph2.6 kmh 30.09 in1019.0 mb 0.00 in0.0 mm 0.00 in0.0 mm 0.00 in0.0 mm
04:00 PM 50.0°F10.0°C 37.8°F3.2°C 63% 0.7 mph NNW1.1 kmh NNW 2.2 mph3.5 kmh 30.09 in1019.0 mb 0.00 in0.0 mm 0.00 in0.0 mm 0.00 in0.0 mm
04:05 PM 50.0°F10.0°C 37.9°F3.3°C 63% 1.6 mph NE2.6 kmh NE 2.2 mph3.5 kmh 30.09 in1019.0 mb 0.00 in0.0 mm 0.00 in0.0 mm 0.00 in0.0 mm
04:10 PM 49.8°F9.9°C 37.9°F3.3°C 63% 1.0 mph NE1.6 kmh NE 2.2 mph3.5 kmh 30.09 in1019.0 mb 0.00 in0.0 mm 0.00 in0.0 mm 0.00 in0.0 mm
04:15 PM 49.5°F9.7°C 37.9°F3.3°C 64% 0.2 mph W0.3 kmh W 2.2 mph3.5 kmh 30.09 in1019.0 mb 0.00 in0.0 mm 0.00 in0.0 mm 0.00 in0.0 mm
04:20 PM 49.3°F9.6°C 37.8°F3.2°C 64% 1.2 mph W1.9 kmh W 2.2 mph3.5 kmh 30.09 in1019.0 mb 0.00 in0.0 mm 0.00 in0.0 mm 0.00 in0.0 mm
04:25 PM 49.2°F9.6°C 37.6°F3.1°C 64% 0.4 mph NW0.6 kmh NW 1.6 mph2.6 kmh 30.09 in1019.0 mb 0.00 in0.0 mm 0.00 in0.0 mm 0.00 in0.0 mm
04:30 PM 49.1°F9.5°C 37.6°F3.1°C 64% 3.2 mph WSW5.1 kmh WSW 6.9 mph11.1 kmh 30.09 in1019.0 mb 0.00 in0.0 mm 0.00 in0.0 mm 0.00 in0.0 mm
04:35 PM 49.1°F9.5°C 37.8°F3.2°C 65% 1.1 mph SSW1.8 kmh SSW 3.8 mph6.1 kmh 30.09 in1019.0 mb 0.00 in0.0 mm 0.00 in0.0 mm 0.00 in0.0 mm
04:40 PM 49.1°F9.5°C 37.8°F3.2°C 65% 2.1 mph SSW3.4 kmh SSW 3.8 mph6.1 kmh 30.09 in1019.0 mb 0.00 in0.0 mm 0.00 in0.0 mm 0.00 in0.0 mm
04:45 PM 49.1°F9.5°C 37.8°F3.2°C 65% 1.1 mph ESE1.8 kmh ESE 2.2 mph3.5 kmh 30.09 in1019.0 mb 0.00 in0.0 mm 0.00 in0.0 mm 0.00 in0.0 mm
04:50 PM 49.1°F9.5°C 37.8°F3.2°C 65% 1.4 mph E2.3 kmh E 3.1 mph5.0 kmh 30.09 in1019.0 mb 0.00 in0.0 mm 0.00 in0.0 mm 0.00 in0.0 mm
04:55 PM 49.1°F9.5°C 37.8°F3.2°C 65% 0.9 mph N1.4 kmh N 3.1 mph5.0 kmh 30.09 in1019.0 mb 0.00 in0.0 mm 0.00 in0.0 mm 0.00 in0.0 mm
05:00 PM 49.1°F9.5°C 37.8°F3.2°C 65% 0.6 mph NE1.0 kmh NE 2.2 mph3.5 kmh 30.09 in1019.0 mb 0.00 in0.0 mm 0.00 in0.0 mm 0.00 in0.0 mm
05:05 PM 49.1°F9.5°C 38.0°F3.3°C 65% 0.5 mph W0.8 kmh W 1.6 mph2.6 kmh 30.09 in1019.0 mb 0.00 in0.0 mm 0.00 in0.0 mm 0.00 in0.0 mm
05:10 PM 49.1°F9.5°C 38.2°F3.4°C 66% 1.4 mph N2.3 kmh N 3.1 mph5.0 kmh 30.09 in1019.0 mb 0.00 in0.0 mm 0.00 in0.0 mm 0.00 in0.0 mm
05:15 PM 49.0°F9.4°C 38.2°F3.4°C 66% 1.9 mph NE3.1 kmh NE 3.1 mph5.0 kmh 30.09 in1019.0 mb 0.00 in0.0 mm 0.00 in0.0 mm 0.00 in0.0 mm
05:20 PM 48.8°F9.3°C 38.5°F3.6°C 67% 3.0 mph N4.8 kmh N 5.4 mph8.7 kmh 30.09 in1019.0 mb 0.00 in0.0 mm 0.00 in0.0 mm 0.00 in0.0 mm
05:25 PM 48.7°F9.3°C 38.7°F3.7°C 68% 1.6 mph NW2.6 kmh NW 4.5 mph7.2 kmh 30.09 in1019.0 mb 0.00 in0.0 mm 0.00 in0.0 mm 0.00 in0.0 mm
05:30 PM 48.5°F9.2°C 38.8°F3.8°C 69% 1.5 mph N2.4 kmh N 3.1 mph5.0 kmh 30.09 in1019.0 mb 0.00 in0.0 mm 0.00 in0.0 mm 0.00 in0.0 mm
05:35 PM 48.4°F9.1°C 38.7°F3.7°C 69% 1.2 mph NE1.9 kmh NE 3.1 mph5.0 kmh 30.09 in1019.0 mb 0.00 in0.0 mm 0.00 in0.0 mm 0.00 in0.0 mm
05:40 PM 48.3°F9.1°C 38.6°F3.7°C 69% 2.2 mph N3.5 kmh N 3.1 mph5.0 kmh 30.09 in1019.0 mb 0.00 in0.0 mm 0.00 in0.0 mm 0.00 in0.0 mm
05:45 PM 48.2°F9.0°C 38.9°F3.8°C 70% 2.6 mph N4.2 kmh N 3.1 mph5.0 kmh 30.09 in1019.0 mb 0.00 in0.0 mm 0.00 in0.0 mm 0.00 in0.0 mm
05:50 PM 48.2°F9.0°C 38.9°F3.8°C 70% 2.7 mph N4.3 kmh N 3.8 mph6.1 kmh 30.09 in1019.0 mb 0.00 in0.0 mm 0.00 in0.0 mm 0.00 in0.0 mm
05:55 PM 48.2°F9.0°C 38.7°F3.7°C 69% 0.4 mph SSE0.6 kmh SSE 1.6 mph2.6 kmh 30.10 in1019.3 mb 0.00 in0.0 mm 0.00 in0.0 mm 0.00 in0.0 mm
06:00 PM 48.2°F9.0°C 38.7°F3.7°C 69% 0.8 mph N1.3 kmh N 2.2 mph3.5 kmh 30.10 in1019.3 mb 0.00 in0.0 mm 0.00 in0.0 mm 0.00 in0.0 mm
06:05 PM 48.2°F9.0°C 38.9°F3.8°C 70% 1.6 mph 2.6 kmh 2.2 mph3.5 kmh 30.10 in1019.3 mb 0.00 in0.0 mm 0.00 in0.0 mm 0.00 in0.0 mm
06:10 PM 48.2°F9.0°C 38.9°F3.8°C 70% 0.9 mph NNE1.4 kmh NNE 2.2 mph3.5 kmh 30.10 in1019.3 mb 0.00 in0.0 mm 0.00 in0.0 mm 0.00 in0.0 mm
06:15 PM 48.1°F8.9°C 38.8°F3.8°C 70% 1.8 mph NE2.9 kmh NE 3.1 mph5.0 kmh 30.10 in1019.3 mb 0.00 in0.0 mm 0.00 in0.0 mm 0.00 in0.0 mm
06:20 PM 48.0°F8.9°C 38.7°F3.7°C 70% 0.7 mph NNE1.1 kmh NNE 2.2 mph3.5 kmh 30.10 in1019.3 mb 0.00 in0.0 mm 0.00 in0.0 mm 0.00 in0.0 mm
06:25 PM 47.9°F8.8°C 38.6°F3.7°C 70% 1.6 mph NNE2.6 kmh NNE 2.2 mph3.5 kmh 30.10 in1019.3 mb 0.00 in0.0 mm 0.00 in0.0 mm 0.00 in0.0 mm
06:30 PM 47.8°F8.8°C 38.5°F3.6°C 70% 1.3 mph NNW2.1 kmh NNW 2.2 mph3.5 kmh 30.10 in1019.3 mb 0.00 in0.0 mm 0.00 in0.0 mm 0.00 in0.0 mm
06:35 PM 47.8°F8.8°C 38.5°F3.6°C 70% 1.1 mph E1.8 kmh E 1.6 mph2.6 kmh 30.10 in1019.3 mb 0.00 in0.0 mm 0.00 in0.0 mm 0.00 in0.0 mm
06:40 PM 47.7°F8.7°C 38.4°F3.6°C 70% 1.6 mph NE2.6 kmh NE 2.2 mph3.5 kmh 30.10 in1019.3 mb 0.00 in0.0 mm 0.00 in0.0 mm 0.00 in0.0 mm
06:45 PM 47.7°F8.7°C 38.4°F3.6°C 70% 1.3 mph ENE2.1 kmh ENE 3.1 mph5.0 kmh 30.10 in1019.3 mb 0.00 in0.0 mm 0.00 in0.0 mm 0.00 in0.0 mm
06:50 PM 47.6°F8.7°C 38.3°F3.5°C 70% 1.3 mph SW2.1 kmh SW 3.8 mph6.1 kmh 30.10 in1019.3 mb 0.00 in0.0 mm 0.00 in0.0 mm 0.00 in0.0 mm
06:55 PM 47.7°F8.7°C 38.4°F3.6°C 70% 1.9 mph SW3.1 kmh SW 3.1 mph5.0 kmh 30.10 in1019.3 mb 0.00 in0.0 mm 0.00 in0.0 mm 0.00 in0.0 mm
07:00 PM 47.9°F8.8°C 38.6°F3.7°C 70% 1.5 mph SW2.4 kmh SW 3.1 mph5.0 kmh 30.10 in1019.3 mb 0.00 in0.0 mm 0.00 in0.0 mm 0.00 in0.0 mm
07:05 PM 48.1°F8.9°C 38.8°F3.8°C 70% 0.5 mph SSE0.8 kmh SSE 1.6 mph2.6 kmh 30.10 in1019.3 mb 0.00 in0.0 mm 0.00 in0.0 mm 0.00 in0.0 mm
07:10 PM 48.2°F9.0°C 38.9°F3.8°C 70% 0.2 mph NW0.3 kmh NW 1.6 mph2.6 kmh 30.10 in1019.3 mb 0.00 in0.0 mm 0.00 in0.0 mm 0.00 in0.0 mm
07:15 PM 48.0°F8.9°C 38.7°F3.7°C 70% 1.1 mph NE1.8 kmh NE 2.2 mph3.5 kmh 30.10 in1019.3 mb 0.00 in0.0 mm 0.00 in0.0 mm 0.00 in0.0 mm
07:20 PM 47.8°F8.8°C 38.5°F3.6°C 70% 1.6 mph NE2.6 kmh NE 2.2 mph3.5 kmh 30.10 in1019.3 mb 0.00 in0.0 mm 0.00 in0.0 mm 0.00 in0.0 mm
07:25 PM 47.7°F8.7°C 38.4°F3.6°C 70% 2.2 mph NNE3.5 kmh NNE 4.5 mph7.2 kmh 30.10 in1019.3 mb 0.00 in0.0 mm 0.00 in0.0 mm 0.00 in0.0 mm
07:30 PM 47.6°F8.7°C 38.3°F3.5°C 70% 2.7 mph N4.3 kmh N 3.8 mph6.1 kmh 30.10 in1019.3 mb 0.00 in0.0 mm 0.00 in0.0 mm 0.00 in0.0 mm
07:35 PM 47.5°F8.6°C 38.6°F3.7°C 71% 2.3 mph N3.7 kmh N 3.8 mph6.1 kmh 30.10 in1019.3 mb 0.00 in0.0 mm 0.00 in0.0 mm 0.00 in0.0 mm
07:40 PM 47.4°F8.6°C 38.4°F3.6°C 71% 1.9 mph NE3.1 kmh NE 4.5 mph7.2 kmh 30.10 in1019.3 mb 0.00 in0.0 mm 0.00 in0.0 mm 0.00 in0.0 mm
07:45 PM 47.5°F8.6°C 38.6°F3.7°C 71% 0.2 mph NW0.3 kmh NW 1.6 mph2.6 kmh 30.10 in1019.3 mb 0.00 in0.0 mm 0.00 in0.0 mm 0.00 in0.0 mm
07:50 PM 47.4°F8.6°C 38.5°F3.6°C 71% 0.3 mph 0.5 kmh 1.6 mph2.6 kmh 30.11 in1019.6 mb 0.00 in0.0 mm 0.00 in0.0 mm 0.00 in0.0 mm
07:55 PM 47.3°F8.5°C 38.4°F3.6°C 71% 0.1 mph NE0.2 kmh NE 1.6 mph2.6 kmh 30.10 in1019.3 mb 0.00 in0.0 mm 0.00 in0.0 mm 0.00 in0.0 mm
08:00 PM 47.2°F8.4°C 38.3°F3.5°C 71% 1.6 mph NE2.6 kmh NE 2.2 mph3.5 kmh 30.10 in1019.3 mb 0.00 in0.0 mm 0.00 in0.0 mm 0.00 in0.0 mm
08:05 PM 47.1°F8.4°C 38.2°F3.4°C 71% 1.6 mph NE2.6 kmh NE 2.2 mph3.5 kmh 30.10 in1019.3 mb 0.00 in0.0 mm 0.00 in0.0 mm 0.00 in0.0 mm
08:10 PM 46.9°F8.3°C 38.0°F3.3°C 71% 0.9 mph NE1.4 kmh NE 2.2 mph3.5 kmh 30.11 in1019.6 mb 0.00 in0.0 mm 0.00 in0.0 mm 0.00 in0.0 mm
08:15 PM 46.6°F8.1°C 37.8°F3.2°C 71% Calm Calm 0.7 mph1.1 kmh 30.11 in1019.6 mb 0.00 in0.0 mm 0.00 in0.0 mm 0.00 in0.0 mm
08:20 PM 46.5°F8.1°C 37.6°F3.1°C 71% 0.5 mph W0.8 kmh W 2.2 mph3.5 kmh 30.11 in1019.6 mb 0.00 in0.0 mm 0.00 in0.0 mm 0.00 in0.0 mm
08:25 PM 46.3°F7.9°C 37.4°F3.0°C 71% 1.1 mph W1.8 kmh W 3.1 mph5.0 kmh 30.11 in1019.6 mb 0.00 in0.0 mm 0.00 in0.0 mm 0.00 in0.0 mm
08:30 PM 46.2°F7.9°C 37.3°F2.9°C 71% Calm Calm 0.7 mph1.1 kmh 30.11 in1019.6 mb 0.00 in0.0 mm 0.00 in0.0 mm 0.00 in0.0 mm
08:35 PM 46.1°F7.8°C 37.2°F2.9°C 71% Calm Calm 0.7 mph1.1 kmh 30.11 in1019.6 mb 0.00 in0.0 mm 0.00 in0.0 mm 0.00 in0.0 mm
08:40 PM 46.0°F7.8°C 37.2°F2.9°C 71% Calm Calm 0.7 mph1.1 kmh 30.11 in1019.6 mb 0.00 in0.0 mm 0.00 in0.0 mm 0.00 in0.0 mm
08:45 PM 45.9°F7.7°C 37.1°F2.8°C 71% Calm Calm 0.7 mph1.1 kmh 30.11 in1019.6 mb 0.00 in0.0 mm 0.00 in0.0 mm 0.00 in0.0 mm
08:50 PM 45.9°F7.7°C 37.4°F3.0°C 72% Calm Calm -- 30.11 in1019.6 mb 0.00 in0.0 mm 0.00 in0.0 mm 0.00 in0.0 mm
08:55 PM 45.9°F7.7°C 37.4°F3.0°C 72% Calm Calm -- 30.11 in1019.6 mb 0.00 in0.0 mm 0.00 in0.0 mm 0.00 in0.0 mm
09:00 PM 45.9°F7.7°C 37.4°F3.0°C 72% Calm Calm 0.7 mph1.1 kmh 30.11 in1019.6 mb 0.00 in0.0 mm 0.00 in0.0 mm 0.00 in0.0 mm
09:05 PM 45.9°F7.7°C 37.4°F3.0°C 72% 0.3 mph SSW0.5 kmh SSW 2.2 mph3.5 kmh 30.11 in1019.6 mb 0.00 in0.0 mm 0.00 in0.0 mm 0.00 in0.0 mm
09:10 PM 45.9°F7.7°C 37.4°F3.0°C 72% 0.6 mph SSW1.0 kmh SSW 2.2 mph3.5 kmh 30.11 in1019.6 mb 0.00 in0.0 mm 0.00 in0.0 mm 0.00 in0.0 mm
09:15 PM 45.9°F7.7°C 37.4°F3.0°C 72% Calm Calm 0.7 mph1.1 kmh 30.11 in1019.6 mb 0.00 in0.0 mm 0.00 in0.0 mm 0.00 in0.0 mm
09:20 PM 45.9°F7.7°C 37.4°F3.0°C 72% 0.1 mph 0.2 kmh 1.6 mph2.6 kmh 30.11 in1019.6 mb 0.00 in0.0 mm 0.00 in0.0 mm 0.00 in0.0 mm
09:25 PM 45.9°F7.7°C 37.4°F3.0°C 72% 0.3 mph 0.5 kmh 1.6 mph2.6 kmh 30.11 in1019.6 mb 0.00 in0.0 mm 0.00 in0.0 mm 0.00 in0.0 mm
09:30 PM 45.9°F7.7°C 37.7°F3.2°C 73% 0.1 mph NE0.2 kmh NE 1.6 mph2.6 kmh 30.11 in1019.6 mb 0.00 in0.0 mm 0.00 in0.0 mm 0.00 in0.0 mm
09:35 PM 45.8°F7.7°C 38.6°F3.7°C 76% 1.5 mph ENE2.4 kmh ENE 2.2 mph3.5 kmh 30.11 in1019.6 mb 0.00 in0.0 mm 0.00 in0.0 mm 0.00 in0.0 mm
09:40 PM 45.7°F7.6°C 39.8°F4.3°C 80% 1.1 mph N1.8 kmh N 2.2 mph3.5 kmh 30.11 in1019.6 mb 0.00 in0.0 mm 0.00 in0.0 mm 0.00 in0.0 mm
09:45 PM 45.4°F7.4°C 39.6°F4.2°C 80% 1.8 mph NE2.9 kmh NE 3.1 mph5.0 kmh 30.11 in1019.6 mb 0.00 in0.0 mm 0.00 in0.0 mm 0.00 in0.0 mm
09:50 PM 45.2°F7.3°C 39.4°F4.1°C 80% 0.9 mph N1.4 kmh N 2.2 mph3.5 kmh 30.11 in1019.6 mb 0.00 in0.0 mm 0.00 in0.0 mm 0.00 in0.0 mm
09:55 PM 45.0°F7.2°C 39.2°F4.0°C 80% 1.3 mph NNW2.1 kmh NNW 2.2 mph3.5 kmh 30.11 in1019.6 mb 0.00 in0.0 mm 0.00 in0.0 mm 0.00 in0.0 mm
10:00 PM 45.0°F7.2°C 39.2°F4.0°C 80% 1.0 mph NNE1.6 kmh NNE 2.2 mph3.5 kmh 30.11 in1019.6 mb 0.00 in0.0 mm 0.00 in0.0 mm 0.00 in0.0 mm
10:05 PM 45.0°F7.2°C 39.2°F4.0°C 80% 1.6 mph NE2.6 kmh NE 2.2 mph3.5 kmh 30.11 in1019.6 mb 0.00 in0.0 mm 0.00 in0.0 mm 0.00 in0.0 mm
10:10 PM 45.0°F7.2°C 39.4°F4.1°C 81% 0.8 mph NE1.3 kmh NE 2.2 mph3.5 kmh 30.11 in1019.6 mb 0.00 in0.0 mm 0.00 in0.0 mm 0.00 in0.0 mm
10:15 PM 45.0°F7.2°C 39.5°F4.2°C 81% 0.8 mph SE1.3 kmh SE 2.2 mph3.5 kmh 30.11 in1019.6 mb 0.00 in0.0 mm 0.00 in0.0 mm 0.00 in0.0 mm
10:20 PM 45.2°F7.3°C 39.7°F4.3°C 81% 0.6 mph NNW1.0 kmh NNW 2.2 mph3.5 kmh 30.11 in1019.6 mb 0.00 in0.0 mm 0.00 in0.0 mm 0.00 in0.0 mm
10:25 PM 45.4°F7.4°C 39.9°F4.4°C 81% 0.2 mph W0.3 kmh W 1.6 mph2.6 kmh 30.11 in1019.6 mb 0.00 in0.0 mm 0.00 in0.0 mm 0.00 in0.0 mm
10:30 PM 45.6°F7.6°C 40.0°F4.4°C 80% 0.6 mph W1.0 kmh W 1.6 mph2.6 kmh 30.11 in1019.6 mb 0.00 in0.0 mm 0.00 in0.0 mm 0.00 in0.0 mm
10:35 PM 45.9°F7.7°C 38.0°F3.3°C 74% 0.8 mph WSW1.3 kmh WSW 2.2 mph3.5 kmh 30.11 in1019.6 mb 0.00 in0.0 mm 0.00 in0.0 mm 0.00 in0.0 mm
10:40 PM 46.0°F7.8°C 37.9°F3.3°C 73% 1.1 mph WSW1.8 kmh WSW 3.1 mph5.0 kmh 30.11 in1019.6 mb 0.00 in0.0 mm 0.00 in0.0 mm 0.00 in0.0 mm
10:45 PM 46.1°F7.8°C 38.0°F3.3°C 73% 1.5 mph SW2.4 kmh SW 3.1 mph5.0 kmh 30.11 in1019.6 mb 0.00 in0.0 mm 0.00 in0.0 mm 0.00 in0.0 mm
10:50 PM 46.3°F7.9°C 37.9°F3.3°C 72% 2.7 mph SW4.3 kmh SW 3.8 mph6.1 kmh 30.11 in1019.6 mb 0.00 in0.0 mm 0.00 in0.0 mm 0.00 in0.0 mm
10:55 PM 46.6°F8.1°C 38.1°F3.4°C 72% 2.6 mph SSW4.2 kmh SSW 6.0 mph9.7 kmh 30.11 in1019.6 mb 0.00 in0.0 mm 0.00 in0.0 mm 0.00 in0.0 mm
11:00 PM 46.9°F8.3°C 38.2°F3.4°C 72% 3.6 mph S5.8 kmh S 6.0 mph9.7 kmh 30.11 in1019.6 mb 0.00 in0.0 mm 0.00 in0.0 mm 0.00 in0.0 mm
11:05 PM 47.2°F8.4°C 38.3°F3.5°C 71% 2.7 mph SSW4.3 kmh SSW 4.5 mph7.2 kmh 30.11 in1019.6 mb 0.00 in0.0 mm 0.00 in0.0 mm 0.00 in0.0 mm
11:10 PM 47.4°F8.6°C 38.3°F3.5°C 71% 2.3 mph SE3.7 kmh SE 5.4 mph8.7 kmh 30.11 in1019.6 mb 0.00 in0.0 mm 0.00 in0.0 mm 0.00 in0.0 mm
11:15 PM 47.5°F8.6°C 38.2°F3.4°C 70% 4.6 mph SSE7.4 kmh SSE 9.2 mph14.8 kmh 30.11 in1019.6 mb 0.00 in0.0 mm 0.00 in0.0 mm 0.00 in0.0 mm
11:20 PM 47.8°F8.8°C 38.4°F3.6°C 70% 4.3 mph S6.9 kmh S 6.9 mph11.1 kmh 30.11 in1019.6 mb 0.00 in0.0 mm 0.00 in0.0 mm 0.00 in0.0 mm
11:25 PM 48.0°F8.9°C 38.0°F3.3°C 68% 6.0 mph S9.7 kmh S 9.2 mph14.8 kmh 30.11 in1019.6 mb 0.00 in0.0 mm 0.00 in0.0 mm 0.00 in0.0 mm
11:30 PM 48.3°F9.1°C 37.6°F3.1°C 66% 6.7 mph SSE10.8 kmh SSE 11.4 mph18.3 kmh 30.11 in1019.6 mb 0.00 in0.0 mm 0.00 in0.0 mm 0.00 in0.0 mm
11:35 PM 48.5°F9.2°C 37.4°F3.0°C 65% 6.1 mph S9.8 kmh S 8.3 mph13.4 kmh 30.11 in1019.6 mb 0.00 in0.0 mm 0.00 in0.0 mm 0.00 in0.0 mm
11:40 PM 48.6°F9.2°C 37.2°F2.9°C 65% 4.8 mph SSW7.7 kmh SSW 6.9 mph11.1 kmh 30.11 in1019.6 mb 0.00 in0.0 mm 0.00 in0.0 mm 0.00 in0.0 mm
11:45 PM 48.7°F9.3°C 37.0°F2.8°C 64% 4.2 mph S6.8 kmh S 6.9 mph11.1 kmh 30.11 in1019.6 mb 0.00 in0.0 mm 0.00 in0.0 mm 0.00 in0.0 mm
11:50 PM 48.7°F9.3°C 37.1°F2.8°C 64% 4.5 mph SSE7.2 kmh SSE 7.6 mph12.2 kmh 30.11 in1019.6 mb 0.00 in0.0 mm 0.00 in0.0 mm 0.00 in0.0 mm
11:55 PM 48.7°F9.3°C 37.1°F2.8°C 64% 7.1 mph SSE11.4 kmh SSE 10.7 mph17.2 kmh 30.11 in1019.6 mb 0.00 in0.0 mm 0.00 in0.0 mm 0.00 in0.0 mm